createdAt,value
2024-01-10T00:02:38.726Z,101772.38
2024-01-10T00:07:42.833Z,101724.88
2024-01-10T00:12:46.458Z,101741.31
2024-01-10T00:17:49.283Z,101744.81
2024-01-10T00:22:52.392Z,101750.13
2024-01-10T00:27:55.383Z,101760.38
2024-01-10T00:32:58.368Z,101748.47
2024-01-10T00:38:02.417Z,101753.78
2024-01-10T00:43:05.628Z,101741.59
2024-01-10T00:48:10.251Z,101733.84
2024-01-10T00:53:13.166Z,101722.69
2024-01-10T00:58:16.874Z,101706.28
2024-01-10T01:03:19.513Z,101689.94
2024-01-10T01:08:22.623Z,101695.28
2024-01-10T01:13:25.526Z,101712.66
2024-01-10T01:18:28.527Z,101693.72
2024-01-10T01:23:38.936Z,101673.91
2024-01-10T01:28:46.061Z,101661.09
2024-01-10T01:33:49.077Z,101668.44
2024-01-10T01:38:52.943Z,101671.06
2024-01-10T01:43:55.793Z,101651.78
2024-01-10T01:48:59.743Z,101660.00
2024-01-10T01:54:02.617Z,101639.09
2024-01-10T01:59:09.822Z,101621.50
2024-01-10T02:04:13.276Z,101622.28
2024-01-10T02:09:17.788Z,101601.38
2024-01-10T02:14:20.876Z,101597.84
2024-01-10T02:19:25.369Z,101600.44
2024-01-10T02:24:28.246Z,101593.59
2024-01-10T02:29:33.057Z,101572.03
2024-01-10T02:34:35.849Z,101566.69
2024-01-10T02:39:39.693Z,101574.19
2024-01-10T02:44:42.434Z,101567.94
2024-01-10T02:49:45.626Z,101556.78
2024-01-10T02:54:48.408Z,101530.78
2024-01-10T02:59:51.489Z,101502.63
2024-01-10T03:04:54.339Z,101501.00
2024-01-10T03:09:57.258Z,101493.97
2024-01-10T03:15:00.324Z,101480.09
2024-01-10T03:20:04.998Z,101453.50
2024-01-10T03:25:07.972Z,101415.59
2024-01-10T03:30:11.883Z,101416.47
2024-01-10T03:35:14.954Z,101377.50
2024-01-10T03:40:17.809Z,101359.09
2024-01-10T03:45:24.401Z,101362.66
2024-01-10T03:50:28.672Z,101351.69
2024-01-10T03:55:31.368Z,101324.19
2024-01-10T04:00:35.145Z,101305.03
2024-01-10T04:05:38.109Z,101296.34
2024-01-10T04:10:42.246Z,101272.84
2024-01-10T04:15:45.099Z,101244.03
2024-01-10T04:20:51.058Z,101230.34
2024-01-10T04:25:53.794Z,101244.00
2024-01-10T04:30:57.466Z,101237.97
2024-01-10T04:36:00.380Z,101222.78
2024-01-10T04:41:03.536Z,101219.91
2024-01-10T04:46:06.495Z,101131.72
2024-01-10T04:51:09.896Z,101137.13
2024-01-10T04:56:12.851Z,101115.81
2024-01-10T05:01:17.084Z,101106.06
2024-01-10T05:06:19.995Z,101083.88
2024-01-10T05:11:23.344Z,101057.38
2024-01-10T05:16:26.304Z,101037.84
2024-01-10T05:21:29.433Z,101016.44
2024-01-10T05:26:32.230Z,101012.31
2024-01-10T05:31:36.500Z,101000.25
2024-01-10T05:36:39.326Z,100992.28
2024-01-10T05:41:46.745Z,100965.88
2024-01-10T05:46:49.774Z,100968.50
2024-01-10T05:51:53.983Z,100970.09
2024-01-10T05:56:56.856Z,100952.75
2024-01-10T06:02:00.355Z,100964.34
2024-01-10T06:07:05.353Z,100944.28
2024-01-10T06:12:09.481Z,100909.78
2024-01-10T06:17:12.368Z,100927.00
2024-01-10T06:22:16.068Z,100900.91
2024-01-10T06:27:19.876Z,100894.84
2024-01-10T06:32:25.173Z,100902.34
2024-01-10T06:37:29.166Z,100892.50
2024-01-10T06:42:32.737Z,100879.38
2024-01-10T06:47:35.726Z,100888.94
2024-01-10T06:52:39.504Z,100873.22
2024-01-10T06:57:42.343Z,100878.44
2024-01-10T07:02:45.861Z,100878.75
2024-01-10T07:07:48.798Z,100861.31
2024-01-10T07:12:53.274Z,100883.97
2024-01-10T07:17:56.096Z,100878.75
2024-01-10T07:23:00.640Z,100885.56
2024-01-10T07:28:03.465Z,100882.22
2024-01-10T07:33:08.600Z,100885.91
2024-01-10T07:38:11.603Z,100886.84
2024-01-10T07:43:14.852Z,100873.25
2024-01-10T07:48:17.804Z,100852.75
2024-01-10T07:53:21.681Z,100834.31
2024-01-10T07:58:24.575Z,100809.78
2024-01-10T08:03:27.743Z,100787.97
2024-01-10T08:08:30.656Z,100782.78
2024-01-10T08:13:34.000Z,100746.13
2024-01-10T08:18:36.996Z,100745.34
2024-01-10T08:23:40.032Z,100723.47
2024-01-10T08:28:44.225Z,100707.75
2024-01-10T08:33:48.312Z,100707.22
2024-01-10T08:38:52.112Z,100697.63
2024-01-10T08:43:56.322Z,100691.88
2024-01-10T08:48:59.333Z,100698.09
2024-01-10T08:54:03.776Z,100675.59
2024-01-10T08:59:07.222Z,100669.59
2024-01-10T09:04:11.259Z,100662.53
2024-01-10T09:09:14.663Z,100643.19
2024-01-10T09:14:18.198Z,100646.19
2024-01-10T09:19:21.282Z,100627.38
2024-01-10T09:24:29.333Z,100632.09
2024-01-10T09:29:33.149Z,100640.03
2024-01-10T09:34:36.171Z,100626.13
2024-01-10T09:39:39.077Z,100615.47
2024-01-10T09:44:43.613Z,100630.91
2024-01-10T09:49:47.904Z,100631.06
2024-01-10T09:54:56.628Z,100622.00
2024-01-10T09:59:59.718Z,100637.00
2024-01-10T10:05:05.891Z,100626.91
2024-01-10T10:10:10.300Z,100612.19
2024-01-10T10:15:18.383Z,100618.34
2024-01-10T10:20:26.586Z,100603.50
2024-01-10T10:25:37.411Z,100606.41
2024-01-10T10:30:40.249Z,100601.28
2024-01-10T10:35:46.472Z,100600.22
2024-01-10T10:40:52.267Z,100605.81
2024-01-10T10:45:58.540Z,100612.84
2024-01-10T10:51:10.415Z,100598.50
2024-01-10T10:56:14.887Z,100593.13
2024-01-10T11:01:18.621Z,100602.56
2024-01-10T11:06:22.846Z,100600.50
2024-01-10T11:11:38.900Z,100594.31
2024-01-10T11:17:19.870Z,100598.19
2024-01-10T11:23:07.763Z,100595.63
2024-01-10T11:28:15.194Z,100598.44
2024-01-10T11:33:32.827Z,100585.72
2024-01-10T11:38:39.851Z,100576.56
2024-01-10T11:43:42.674Z,100578.72
2024-01-10T11:48:45.669Z,100579.44
2024-01-10T11:53:48.652Z,100565.94
2024-01-10T11:59:12.616Z,100550.34
2024-01-10T12:04:23.838Z,100559.81
2024-01-10T12:09:33.932Z,100572.19
2024-01-10T12:14:38.216Z,100574.34
2024-01-10T12:19:41.653Z,100565.50
2024-01-10T12:24:47.038Z,100566.56
2024-01-10T12:29:54.342Z,100566.59
2024-01-10T12:35:05.715Z,100562.19
2024-01-10T12:40:11.471Z,100540.47
2024-01-10T12:45:33.155Z,100563.75
2024-01-10T12:50:37.580Z,100549.94
2024-01-10T12:55:47.468Z,100560.00
2024-01-10T13:00:54.544Z,100560.53
2024-01-10T13:06:02.209Z,100563.03
2024-01-10T13:11:10.129Z,100556.53
2024-01-10T13:16:14.716Z,100568.59
2024-01-10T13:21:21.707Z,100575.41
2024-01-10T13:26:26.524Z,100571.69
2024-01-10T13:31:31.165Z,100581.91
2024-01-10T13:36:34.010Z,100581.25
2024-01-10T13:41:37.321Z,100577.84
2024-01-10T13:46:40.336Z,100583.91
2024-01-10T13:51:46.417Z,100593.63
2024-01-10T13:56:49.379Z,100583.81
2024-01-10T14:01:52.902Z,100597.19
2024-01-10T14:06:55.711Z,100599.28
2024-01-10T14:11:59.091Z,100603.00
2024-01-10T14:17:02.276Z,100602.22
2024-01-10T14:22:13.701Z,100608.03
2024-01-10T14:27:20.593Z,100638.94
2024-01-10T14:32:24.218Z,100677.25
2024-01-10T14:37:33.268Z,100681.28
2024-01-10T14:42:38.875Z,100708.41
2024-01-10T14:47:42.192Z,100740.28
2024-01-10T14:52:45.558Z,100764.78
2024-01-10T14:57:49.206Z,100802.56
2024-01-10T15:02:53.177Z,100826.44
2024-01-10T15:07:56.144Z,100862.75
2024-01-10T15:12:59.792Z,100892.44
2024-01-10T15:18:02.676Z,100919.56
2024-01-10T15:23:05.818Z,100931.00
2024-01-10T15:28:11.225Z,100949.53
2024-01-10T15:33:15.205Z,100991.53
2024-01-10T15:38:18.186Z,101022.56
2024-01-10T15:43:22.239Z,101058.69
2024-01-10T15:48:25.500Z,101074.69
2024-01-10T15:53:30.023Z,101096.47
2024-01-10T15:58:34.360Z,101122.66
2024-01-10T16:03:38.284Z,101152.41
2024-01-10T16:08:41.700Z,101171.28
2024-01-10T16:13:46.853Z,101183.81
2024-01-10T16:18:50.557Z,101205.81
2024-01-10T16:23:55.310Z,101221.41
2024-01-10T16:28:58.018Z,101243.75
2024-01-10T16:34:01.955Z,101245.94
2024-01-10T16:39:04.798Z,101248.47
2024-01-10T16:44:08.001Z,101250.63
2024-01-10T16:49:11.580Z,101272.56
2024-01-10T16:54:14.201Z,101283.63
2024-01-10T16:59:17.173Z,101309.13
2024-01-10T17:04:21.880Z,101330.44
2024-01-10T17:09:24.854Z,101334.66
2024-01-10T17:14:28.586Z,101333.44
2024-01-10T17:19:31.453Z,101342.38
2024-01-10T17:24:35.029Z,101362.75
2024-01-10T17:29:38.113Z,101377.16
2024-01-10T17:34:42.059Z,101379.38
2024-01-10T17:39:50.479Z,101400.03
2024-01-10T17:44:57.630Z,101394.69
2024-01-10T17:50:00.502Z,101419.38
2024-01-10T17:55:05.787Z,101423.59
2024-01-10T18:00:10.991Z,101430.53
2024-01-10T18:05:17.533Z,101450.13
2024-01-10T18:10:20.553Z,101440.44
2024-01-10T18:15:23.567Z,101489.47
2024-01-10T18:20:26.341Z,101502.84
2024-01-10T18:25:31.765Z,101514.16
2024-01-10T18:30:35.539Z,101523.16
2024-01-10T18:35:38.756Z,101539.75
2024-01-10T18:40:42.418Z,101540.72
2024-01-10T18:45:45.408Z,101542.50
2024-01-10T18:50:48.213Z,101537.53
2024-01-10T18:55:51.252Z,101556.69
2024-01-10T19:00:54.065Z,101565.56
2024-01-10T19:05:57.364Z,101572.38
2024-01-10T19:11:01.790Z,101597.50
2024-01-10T19:16:09.341Z,101608.78
2024-01-10T19:21:12.214Z,101606.91
2024-01-10T19:26:26.278Z,101601.00
2024-01-10T19:31:29.084Z,101601.19
2024-01-10T19:36:33.900Z,101600.50
2024-01-10T19:41:36.894Z,101628.31
2024-01-10T19:46:41.092Z,101650.72
2024-01-10T19:51:46.809Z,101669.16
2024-01-10T19:56:49.974Z,101684.72
2024-01-10T20:01:52.765Z,101692.50
2024-01-10T20:06:56.698Z,101700.56
2024-01-10T20:11:59.488Z,101709.84
2024-01-10T20:17:02.408Z,101730.56
2024-01-10T20:22:05.476Z,101745.34
2024-01-10T20:27:09.881Z,101765.94
2024-01-10T20:32:12.745Z,101788.28
2024-01-10T20:37:17.570Z,101792.84
2024-01-10T20:42:21.071Z,101784.84
2024-01-10T20:47:28.704Z,101777.03
2024-01-10T20:52:31.609Z,101771.72
2024-01-10T20:57:35.249Z,101781.41
2024-01-10T21:02:38.875Z,101793.47
2024-01-10T21:07:42.721Z,101782.38
2024-01-10T21:12:45.529Z,101804.72
2024-01-10T21:17:49.298Z,101806.50
2024-01-10T21:22:53.588Z,101817.78
2024-01-10T21:27:56.827Z,101827.25
2024-01-10T21:33:02.016Z,101832.63
2024-01-10T21:38:05.565Z,101830.19
2024-01-10T21:43:08.303Z,101832.13
2024-01-10T21:48:12.472Z,101831.03
2024-01-10T21:53:15.336Z,101835.53
2024-01-10T21:58:19.305Z,101843.31
2024-01-10T22:03:28.627Z,101836.38
2024-01-10T22:08:39.715Z,101842.50
2024-01-10T22:13:42.584Z,101859.03
2024-01-10T22:18:46.081Z,101870.50
2024-01-10T22:23:48.919Z,101867.09
2024-01-10T22:28:52.186Z,101863.59
2024-01-10T22:33:55.763Z,101854.09
2024-01-10T22:38:58.880Z,101868.72
2024-01-10T22:44:01.841Z,101871.03
2024-01-10T22:49:05.315Z,101871.78
2024-01-10T22:54:08.329Z,101899.53
2024-01-10T22:59:11.648Z,101908.09
2024-01-10T23:04:14.578Z,101906.34
2024-01-10T23:09:18.398Z,101911.41
2024-01-10T23:14:21.130Z,101891.78
2024-01-10T23:19:24.090Z,101904.56
2024-01-10T23:24:27.899Z,101895.06
2024-01-10T23:29:31.587Z,101904.44
2024-01-10T23:34:34.888Z,101917.47
2024-01-10T23:39:37.960Z,101901.88
2024-01-10T23:44:41.337Z,101889.94
2024-01-10T23:49:45.852Z,101895.28
2024-01-10T23:54:48.576Z,101885.72
2024-01-10T23:59:51.452Z,101875.53
